createdAt,value
2018-09-21T00:00:21.315Z,0.00
2018-09-21T00:01:21.219Z,0.00
2018-09-21T00:02:21.131Z,0.00
2018-09-21T00:03:21.060Z,0.00
2018-09-21T00:04:20.952Z,0.00
2018-09-21T00:05:20.862Z,0.00
2018-09-21T00:06:20.766Z,0.00
2018-09-21T00:07:20.677Z,0.00
2018-09-21T00:08:20.606Z,0.00
2018-09-21T00:09:20.498Z,0.00
2018-09-21T00:10:20.413Z,0.00
2018-09-21T00:11:20.321Z,0.00
2018-09-21T00:12:20.230Z,0.00
2018-09-21T00:13:20.151Z,0.00
2018-09-21T00:14:20.046Z,0.00
2018-09-21T00:15:19.954Z,0.00
2018-09-21T00:16:19.866Z,0.00
2018-09-21T00:17:19.777Z,0.00
2018-09-21T00:18:19.701Z,0.00
2018-09-21T00:19:19.592Z,0.00
2018-09-21T00:20:19.503Z,0.00
2018-09-21T00:21:19.413Z,0.00
2018-09-21T00:22:19.323Z,0.00
2018-09-21T00:23:19.237Z,0.00
2018-09-21T00:24:19.162Z,0.00
2018-09-21T00:25:19.049Z,0.00
2018-09-21T00:26:18.972Z,0.00
2018-09-21T00:27:18.869Z,0.00
2018-09-21T00:28:18.781Z,0.00
2018-09-21T00:29:18.706Z,0.00
2018-09-21T00:30:18.601Z,0.00
2018-09-21T00:31:18.509Z,0.00
2018-09-21T00:32:18.420Z,0.00
2018-09-21T00:33:18.329Z,0.00
2018-09-21T00:34:18.250Z,0.00
2018-09-21T00:35:18.147Z,0.00
2018-09-21T00:36:18.054Z,0.00
2018-09-21T00:37:17.966Z,0.00
2018-09-21T00:38:17.877Z,0.00
2018-09-21T00:39:17.803Z,0.00
2018-09-21T00:40:17.694Z,0.00
2018-09-21T00:41:17.603Z,0.00
2018-09-21T00:42:17.611Z,0.00
2018-09-21T00:43:17.423Z,0.00
2018-09-21T00:44:17.349Z,0.00
2018-09-21T00:45:17.240Z,0.00
2018-09-21T00:46:17.153Z,0.00
2018-09-21T00:47:17.060Z,0.00
2018-09-21T00:48:16.969Z,0.00
2018-09-21T00:49:16.996Z,0.00
2018-09-21T00:50:16.787Z,0.00
2018-09-21T00:51:16.700Z,0.00
2018-09-21T00:52:16.611Z,0.00
2018-09-21T00:53:16.514Z,0.00
2018-09-21T00:54:16.438Z,0.00
2018-09-21T00:55:16.331Z,0.00
2018-09-21T00:56:16.343Z,0.00
2018-09-21T00:57:16.156Z,0.00
2018-09-21T00:58:16.065Z,0.00
2018-09-21T00:59:15.991Z,0.00
2018-09-21T01:00:15.882Z,0.00
2018-09-21T01:01:15.790Z,0.00
2018-09-21T01:02:15.700Z,0.00
2018-09-21T01:03:15.708Z,0.00
2018-09-21T01:04:15.536Z,0.00
2018-09-21T01:05:15.430Z,0.00
2018-09-21T01:06:15.337Z,0.00
2018-09-21T01:07:15.247Z,0.00
2018-09-21T01:08:15.156Z,0.00
2018-09-21T01:09:15.089Z,0.00
2018-09-21T01:10:15.077Z,0.00
2018-09-21T01:11:14.884Z,0.00
2018-09-21T01:12:14.794Z,0.00
2018-09-21T01:13:14.699Z,0.00
2018-09-21T01:14:14.626Z,0.00
2018-09-21T01:15:14.522Z,0.00
2018-09-21T01:16:14.429Z,0.00
2018-09-21T01:17:14.440Z,0.00
2018-09-21T01:18:14.248Z,0.00
2018-09-21T01:19:14.175Z,0.00
2018-09-21T01:20:14.066Z,0.00
2018-09-21T01:21:13.974Z,0.00
2018-09-21T01:22:13.885Z,0.00
2018-09-21T01:23:13.793Z,0.00
2018-09-21T01:24:13.822Z,0.00
2018-09-21T01:25:13.612Z,0.00
2018-09-21T01:26:13.522Z,0.00
2018-09-21T01:27:13.433Z,0.00
2018-09-21T01:28:13.347Z,0.00
2018-09-21T01:29:13.266Z,0.00
2018-09-21T01:30:13.160Z,0.00
2018-09-21T01:31:13.174Z,0.00
2018-09-21T01:32:12.977Z,0.00
2018-09-21T01:33:12.894Z,0.00
2018-09-21T01:34:12.816Z,0.00
2018-09-21T01:35:12.708Z,0.00
2018-09-21T01:36:12.619Z,0.00
2018-09-21T01:37:12.528Z,0.00
2018-09-21T01:38:12.531Z,0.00
2018-09-21T01:39:12.368Z,0.00
2018-09-21T01:40:12.260Z,0.00
2018-09-21T01:41:12.162Z,0.00
2018-09-21T01:42:12.083Z,0.00
2018-09-21T01:43:11.983Z,0.00
2018-09-21T01:44:11.910Z,0.00
2018-09-21T01:45:11.900Z,0.00
2018-09-21T01:46:11.708Z,0.00
2018-09-21T01:47:11.618Z,0.00
2018-09-21T01:48:11.528Z,0.00
2018-09-21T01:49:11.450Z,0.00
2018-09-21T01:50:11.365Z,0.00
2018-09-21T01:51:11.261Z,0.00
2018-09-21T01:52:11.267Z,0.00
2018-09-21T01:53:11.073Z,0.00
2018-09-21T01:54:10.999Z,0.00
2018-09-21T01:55:10.890Z,0.00
2018-09-21T01:56:10.802Z,0.00
2018-09-21T01:57:10.712Z,0.00
2018-09-21T01:58:10.619Z,0.00
2018-09-21T01:59:10.544Z,0.00
2018-09-21T02:00:10.442Z,0.00
2018-09-21T02:01:10.348Z,0.00
2018-09-21T02:02:10.256Z,0.00
2018-09-21T02:03:10.171Z,0.00
2018-09-21T02:04:10.093Z,0.00
2018-09-21T02:05:09.985Z,0.00
2018-09-21T02:06:09.896Z,0.00
2018-09-21T02:07:09.807Z,0.00
2018-09-21T02:08:09.711Z,0.00
2018-09-21T02:09:09.622Z,0.00
2018-09-21T02:10:09.554Z,0.00
2018-09-21T02:11:09.439Z,0.00
2018-09-21T02:12:09.351Z,0.00
2018-09-21T02:13:09.264Z,0.00
2018-09-21T02:14:09.184Z,0.00
2018-09-21T02:15:09.077Z,0.00
2018-09-21T02:16:08.986Z,0.00
2018-09-21T02:17:08.895Z,0.00
2018-09-21T02:18:08.806Z,0.00
2018-09-21T02:19:08.716Z,0.00
2018-09-21T02:20:08.640Z,0.00
2018-09-21T02:21:08.529Z,0.00
2018-09-21T02:22:08.441Z,0.00
2018-09-21T02:23:08.350Z,0.00
2018-09-21T02:24:08.261Z,0.00
2018-09-21T02:25:08.182Z,0.00
2018-09-21T02:26:08.080Z,0.00
2018-09-21T02:27:08.001Z,0.00
2018-09-21T02:28:07.895Z,0.00
2018-09-21T02:29:07.803Z,0.00
2018-09-21T02:30:07.737Z,0.00
2018-09-21T02:31:07.622Z,0.00
2018-09-21T02:32:07.547Z,0.00
2018-09-21T02:33:07.442Z,0.00
2018-09-21T02:34:07.351Z,0.00
2018-09-21T02:35:07.274Z,0.00
2018-09-21T02:36:07.168Z,0.00
2018-09-21T02:37:07.077Z,0.00
2018-09-21T02:38:06.987Z,0.00
2018-09-21T02:39:06.894Z,0.00
2018-09-21T02:40:06.820Z,0.00
2018-09-21T02:41:06.716Z,0.00
2018-09-21T02:42:06.636Z,0.00
2018-09-21T02:43:06.530Z,0.00
2018-09-21T02:44:06.442Z,0.00
2018-09-21T02:45:06.371Z,0.00
2018-09-21T02:46:06.258Z,0.00
2018-09-21T02:47:06.170Z,0.00
2018-09-21T02:48:06.083Z,0.00
2018-09-21T02:49:05.984Z,0.00
2018-09-21T02:50:05.911Z,0.00
2018-09-21T02:51:05.802Z,0.00
2018-09-21T02:52:05.713Z,0.00
2018-09-21T02:53:05.637Z,0.00
2018-09-21T02:54:05.532Z,0.00
2018-09-21T02:55:05.453Z,0.00
2018-09-21T02:56:05.347Z,0.00
2018-09-21T02:57:05.263Z,0.00
2018-09-21T02:58:05.167Z,0.00
2018-09-21T02:59:05.072Z,0.00
2018-09-21T03:00:05.008Z,0.00
2018-09-21T03:01:04.892Z,0.00
2018-09-21T03:02:04.802Z,0.00
2018-09-21T03:03:04.712Z,0.00
2018-09-21T03:04:04.628Z,0.00
2018-09-21T03:05:04.543Z,0.00
2018-09-21T03:06:04.441Z,0.00
2018-09-21T03:07:04.344Z,0.00
2018-09-21T03:08:04.254Z,0.00
2018-09-21T03:09:04.163Z,0.00
2018-09-21T03:10:04.091Z,0.00
2018-09-21T03:11:03.982Z,0.00
2018-09-21T03:12:03.890Z,0.00
2018-09-21T03:13:03.840Z,0.00
2018-09-21T03:14:03.710Z,0.00
2018-09-21T03:15:03.736Z,0.00
2018-09-21T03:16:03.525Z,0.00
2018-09-21T03:17:03.433Z,0.00
2018-09-21T03:18:03.341Z,0.00
2018-09-21T03:19:03.251Z,0.00
2018-09-21T03:20:03.176Z,0.00
2018-09-21T03:21:03.068Z,0.00
2018-09-21T03:22:02.976Z,0.00
2018-09-21T03:23:02.892Z,0.00
2018-09-21T03:24:02.846Z,0.00
2018-09-21T03:25:02.718Z,0.00
2018-09-21T03:26:02.613Z,0.00
2018-09-21T03:27:02.521Z,0.00
2018-09-21T03:28:02.432Z,0.00
2018-09-21T03:29:02.440Z,0.00
2018-09-21T03:30:02.265Z,0.00
2018-09-21T03:31:02.154Z,0.00
2018-09-21T03:32:02.062Z,0.00
2018-09-21T03:33:01.974Z,0.00
2018-09-21T03:34:01.896Z,0.00
2018-09-21T03:35:01.819Z,0.00
2018-09-21T03:36:01.808Z,0.00
2018-09-21T03:37:01.608Z,0.00
2018-09-21T03:38:01.514Z,0.00
2018-09-21T03:39:01.426Z,0.00
2018-09-21T03:40:01.353Z,0.00
2018-09-21T03:41:01.239Z,0.00
2018-09-21T03:42:01.151Z,0.00
2018-09-21T03:43:01.157Z,0.00
2018-09-21T03:44:00.965Z,0.00
2018-09-21T03:45:00.890Z,0.00
2018-09-21T03:46:00.780Z,0.00
2018-09-21T03:47:00.692Z,0.00
2018-09-21T03:48:00.601Z,0.00
2018-09-21T03:49:00.507Z,0.00
2018-09-21T03:50:00.528Z,0.00
2018-09-21T03:51:00.323Z,0.00
2018-09-21T03:52:00.233Z,0.00
2018-09-21T03:53:00.139Z,0.00
2018-09-21T03:54:00.051Z,0.00
2018-09-21T03:54:59.957Z,0.00
2018-09-21T03:55:59.881Z,0.00
2018-09-21T03:56:59.880Z,0.00
2018-09-21T03:57:59.687Z,0.00
2018-09-21T03:58:59.596Z,0.00
2018-09-21T03:59:59.502Z,0.00
2018-09-21T04:00:59.427Z,0.00
2018-09-21T04:01:59.317Z,0.00
2018-09-21T04:02:59.228Z,0.00
2018-09-21T04:03:59.257Z,0.00
2018-09-21T04:04:59.042Z,0.00
2018-09-21T04:05:58.965Z,0.00
2018-09-21T04:06:58.857Z,0.00
2018-09-21T04:07:58.767Z,0.00
2018-09-21T04:08:58.672Z,0.00
2018-09-21T04:09:58.584Z,0.00
2018-09-21T04:10:58.606Z,0.00
2018-09-21T04:11:58.401Z,0.00
2018-09-21T04:12:58.308Z,0.00
2018-09-21T04:13:58.213Z,0.00
2018-09-21T04:14:58.125Z,0.00
2018-09-21T04:15:58.053Z,0.00
2018-09-21T04:16:57.967Z,0.00
2018-09-21T04:17:57.948Z,0.00
2018-09-21T04:18:57.758Z,0.00
2018-09-21T04:19:57.676Z,0.00
2018-09-21T04:20:57.594Z,0.00
2018-09-21T04:21:57.485Z,4.00
2018-09-21T04:22:57.390Z,4.00
2018-09-21T04:23:57.300Z,0.00
2018-09-21T04:24:57.310Z,4.00
2018-09-21T04:25:57.138Z,4.00
2018-09-21T04:26:57.024Z,4.00
2018-09-21T04:27:56.942Z,8.00
2018-09-21T04:28:56.841Z,8.00
2018-09-21T04:29:56.750Z,8.00
2018-09-21T04:30:56.684Z,8.00
2018-09-21T04:31:56.666Z,12.00
2018-09-21T04:32:56.477Z,12.00
2018-09-21T04:33:57.173Z,16.00
2018-09-21T04:34:56.293Z,20.00
2018-09-21T04:35:56.299Z,20.00
2018-09-21T04:36:56.108Z,28.00
2018-09-21T04:37:56.017Z,32.00
2018-09-21T04:38:55.926Z,36.00
2018-09-21T04:39:55.834Z,44.00
2018-09-21T04:40:55.758Z,48.00
2018-09-21T04:41:55.648Z,60.00
2018-09-21T04:42:55.558Z,72.00
2018-09-21T04:43:55.467Z,88.00
2018-09-21T04:44:55.373Z,100.00
2018-09-21T04:45:55.370Z,116.00
2018-09-21T04:46:55.200Z,136.00
2018-09-21T04:47:55.104Z,152.00
2018-09-21T04:48:55.007Z,176.00
2018-09-21T04:49:54.943Z,196.00
2018-09-21T04:50:54.844Z,236.00
2018-09-21T04:51:54.740Z,276.00
2018-09-21T04:52:54.644Z,320.00
2018-09-21T04:53:54.550Z,376.00
2018-09-21T04:54:54.458Z,420.00
2018-09-21T04:55:54.387Z,452.00
2018-09-21T04:56:54.277Z,464.00
2018-09-21T04:57:54.183Z,472.00
2018-09-21T04:58:54.092Z,480.00
2018-09-21T04:59:54.002Z,500.00
2018-09-21T05:00:53.923Z,532.00
2018-09-21T05:01:53.817Z,568.00
2018-09-21T05:02:53.725Z,612.00
2018-09-21T05:03:53.635Z,664.00
2018-09-21T05:04:53.541Z,720.00
2018-09-21T05:05:53.467Z,780.00
2018-09-21T05:06:53.358Z,840.00
2018-09-21T05:07:53.269Z,904.00
2018-09-21T05:08:53.178Z,968.00
2018-09-21T05:09:53.084Z,1044.00
2018-09-21T05:10:53.009Z,1120.00
2018-09-21T05:11:52.904Z,1196.00
2018-09-21T05:12:52.812Z,1268.00
2018-09-21T05:13:52.795Z,1340.00
2018-09-21T05:14:52.625Z,1400.00
2018-09-21T05:15:52.551Z,1452.00
2018-09-21T05:16:52.445Z,1500.00
2018-09-21T05:17:52.352Z,1552.00
2018-09-21T05:18:52.263Z,1608.00
2018-09-21T05:19:52.223Z,1692.00
2018-09-21T05:20:52.091Z,1764.00
2018-09-21T05:21:51.984Z,1840.00
2018-09-21T05:22:51.891Z,1924.00
2018-09-21T05:23:51.803Z,2016.00
2018-09-21T05:24:51.711Z,2084.00
2018-09-21T05:25:51.642Z,2164.00
2018-09-21T05:26:51.528Z,2252.00
2018-09-21T05:27:51.463Z,2340.00
2018-09-21T05:28:51.342Z,2448.00
2018-09-21T05:29:51.252Z,2580.00
2018-09-21T05:30:51.178Z,2724.00
2018-09-21T05:31:51.069Z,2836.00
2018-09-21T05:32:50.979Z,2920.00
2018-09-21T05:33:50.888Z,3036.00
2018-09-21T05:34:50.882Z,3160.00
2018-09-21T05:35:50.721Z,3256.00
2018-09-21T05:36:50.612Z,3336.00
2018-09-21T05:37:50.531Z,3388.00
2018-09-21T05:38:50.429Z,3444.00
2018-09-21T05:39:50.339Z,3552.00
2018-09-21T05:40:50.268Z,3636.00
2018-09-21T05:41:50.158Z,3728.00
2018-09-21T05:42:50.067Z,3836.00
2018-09-21T05:43:49.972Z,3920.00
2018-09-21T05:44:49.885Z,3960.00
2018-09-21T05:45:49.793Z,4124.00
2018-09-21T05:46:49.715Z,4192.00
2018-09-21T05:47:49.606Z,4168.00
2018-09-21T05:48:49.513Z,4468.00
2018-09-21T05:49:49.425Z,4440.00
2018-09-21T05:50:49.336Z,4900.00
2018-09-21T05:51:49.257Z,5748.00
2018-09-21T05:52:49.152Z,8376.00
2018-09-21T05:53:49.058Z,6880.00
2018-09-21T05:54:48.969Z,8040.00
2018-09-21T05:55:48.878Z,10844.00
2018-09-21T05:56:48.803Z,13264.00
2018-09-21T05:57:48.696Z,14560.00
2018-09-21T05:58:48.603Z,11960.00
2018-09-21T05:59:48.514Z,8240.00
2018-09-21T06:00:48.429Z,9256.00
2018-09-21T06:01:48.347Z,8248.00
2018-09-21T06:02:48.377Z,10384.00
2018-09-21T06:03:48.150Z,13852.00
2018-09-21T06:04:48.058Z,14560.00
2018-09-21T06:05:47.972Z,14240.00
2018-09-21T06:06:47.895Z,11048.00
2018-09-21T06:07:47.842Z,12120.00
2018-09-21T06:08:47.699Z,13364.00
2018-09-21T06:09:47.717Z,12244.00
2018-09-21T06:10:47.516Z,17024.00
2018-09-21T06:11:47.447Z,17536.00
2018-09-21T06:12:47.338Z,17472.00
2018-09-21T06:13:47.329Z,17472.00
2018-09-21T06:14:47.157Z,16512.00
2018-09-21T06:15:47.065Z,14812.00
2018-09-21T06:16:47.093Z,13832.00
2018-09-21T06:17:46.889Z,15520.00
2018-09-21T06:18:46.797Z,12360.00
2018-09-21T06:19:46.709Z,11980.00
2018-09-21T06:20:46.621Z,15648.00
2018-09-21T06:21:46.549Z,16672.00
2018-09-21T06:22:46.501Z,21024.00
2018-09-21T06:23:46.453Z,21248.00
2018-09-21T06:24:46.259Z,20096.00
2018-09-21T06:25:46.171Z,16608.00
2018-09-21T06:26:46.099Z,15388.00
2018-09-21T06:27:45.994Z,11308.00
2018-09-21T06:28:45.913Z,13604.00
2018-09-21T06:29:45.819Z,15584.00
2018-09-21T06:30:45.841Z,12996.00
2018-09-21T06:31:45.658Z,17312.00
2018-09-21T06:32:45.551Z,18496.00
2018-09-21T06:33:45.462Z,18880.00
2018-09-21T06:34:45.371Z,19744.00
2018-09-21T06:35:45.287Z,20320.00
2018-09-21T06:36:45.209Z,11820.00
2018-09-21T06:37:45.206Z,10172.00
2018-09-21T06:38:45.017Z,12704.00
2018-09-21T06:39:44.927Z,11304.00
2018-09-21T06:40:44.865Z,12512.00
2018-09-21T06:41:44.768Z,14216.00
2018-09-21T06:42:44.665Z,18400.00
2018-09-21T06:43:44.574Z,14040.00
2018-09-21T06:44:44.584Z,15872.00
2018-09-21T06:45:44.394Z,10608.00
2018-09-21T06:46:44.322Z,16192.00
2018-09-21T06:47:44.221Z,18688.00
2018-09-21T06:48:44.129Z,17952.00
2018-09-21T06:49:44.060Z,17184.00
2018-09-21T06:50:43.953Z,16448.00
2018-09-21T06:51:43.977Z,14788.00
2018-09-21T06:52:43.775Z,16800.00
2018-09-21T06:53:43.687Z,19392.00
2018-09-21T06:54:43.598Z,18272.00
2018-09-21T06:55:43.509Z,20320.00
2018-09-21T06:56:43.438Z,19200.00
2018-09-21T06:57:43.454Z,18784.00
2018-09-21T06:58:43.243Z,19072.00
2018-09-21T06:59:43.153Z,18880.00
2018-09-21T07:00:43.066Z,21536.00
2018-09-21T07:01:43.031Z,22272.00
2018-09-21T07:02:42.889Z,22144.00
2018-09-21T07:03:42.800Z,23232.00
2018-09-21T07:04:42.712Z,24800.00
2018-09-21T07:05:42.733Z,21216.00
2018-09-21T07:06:42.550Z,25152.00
2018-09-21T07:07:42.448Z,24288.00
2018-09-21T07:08:42.357Z,26176.00
2018-09-21T07:09:42.271Z,15904.00
2018-09-21T07:10:42.184Z,21856.00
2018-09-21T07:11:42.116Z,11788.00
2018-09-21T07:12:42.010Z,14244.00
2018-09-21T07:13:41.922Z,23808.00
2018-09-21T07:14:41.833Z,24992.00
2018-09-21T07:15:41.746Z,31168.00
2018-09-21T07:16:41.672Z,29504.00
2018-09-21T07:17:41.566Z,31232.00
2018-09-21T07:18:41.479Z,31968.00
2018-09-21T07:19:41.404Z,32608.00
2018-09-21T07:20:41.306Z,34112.00
2018-09-21T07:21:41.233Z,33504.00
2018-09-21T07:22:41.127Z,30688.00
2018-09-21T07:23:41.041Z,26528.00
2018-09-21T07:24:40.956Z,26656.00
2018-09-21T07:25:40.866Z,26944.00
2018-09-21T07:26:40.796Z,34304.00
2018-09-21T07:27:40.692Z,33152.00
2018-09-21T07:28:40.605Z,30816.00
2018-09-21T07:29:40.523Z,24608.00
2018-09-21T07:30:40.434Z,22752.00
2018-09-21T07:31:40.346Z,21344.00
2018-09-21T07:32:40.276Z,21056.00
2018-09-21T07:33:40.167Z,24128.00
2018-09-21T07:34:40.081Z,23456.00
2018-09-21T07:35:39.997Z,21344.00
2018-09-21T07:36:39.905Z,20192.00
2018-09-21T07:37:39.896Z,21920.00
2018-09-21T07:38:39.740Z,23296.00
2018-09-21T07:39:39.646Z,26112.00
2018-09-21T07:40:39.558Z,26752.00
2018-09-21T07:41:39.473Z,26688.00
2018-09-21T07:42:39.403Z,26432.00
2018-09-21T07:43:39.297Z,24512.00
2018-09-21T07:44:39.227Z,23808.00
2018-09-21T07:45:39.125Z,21920.00
2018-09-21T07:46:39.039Z,20960.00
2018-09-21T07:47:38.970Z,19232.00
2018-09-21T07:48:38.861Z,17824.00
2018-09-21T07:49:38.775Z,22272.00
2018-09-21T07:50:38.760Z,24224.00
2018-09-21T07:51:38.605Z,21920.00
2018-09-21T07:52:38.530Z,15228.00
2018-09-21T07:53:38.428Z,15804.00
2018-09-21T07:54:38.340Z,16188.00
2018-09-21T07:55:38.256Z,14588.00
2018-09-21T07:56:38.166Z,15300.00
2018-09-21T07:57:38.097Z,14124.00
2018-09-21T07:58:37.995Z,18144.00
2018-09-21T07:59:37.906Z,21376.00
2018-09-21T08:00:37.821Z,23808.00
2018-09-21T08:01:37.734Z,27232.00
2018-09-21T08:02:37.662Z,28896.00
2018-09-21T08:03:37.562Z,28704.00
2018-09-21T08:04:37.472Z,24992.00
2018-09-21T08:05:37.388Z,21984.00
2018-09-21T08:06:37.300Z,27680.00
2018-09-21T08:07:37.230Z,23776.00
2018-09-21T08:08:37.127Z,25664.00
2018-09-21T08:09:37.040Z,26848.00
2018-09-21T08:10:36.956Z,25312.00
2018-09-21T08:11:36.866Z,24416.00
2018-09-21T08:12:36.795Z,29280.00
2018-09-21T08:13:36.693Z,29760.00
2018-09-21T08:14:36.705Z,30912.00
2018-09-21T08:15:36.519Z,31808.00
2018-09-21T08:16:36.437Z,33664.00
2018-09-21T08:17:36.369Z,34240.00
2018-09-21T08:18:36.260Z,40576.00
2018-09-21T08:19:36.218Z,43072.00
2018-09-21T08:20:36.089Z,38048.00
2018-09-21T08:21:36.003Z,39296.00
2018-09-21T08:22:35.934Z,45024.00
2018-09-21T08:23:35.833Z,34432.00
2018-09-21T08:24:35.746Z,49088.00
2018-09-21T08:25:35.661Z,52544.00
2018-09-21T08:26:35.601Z,52448.00
2018-09-21T08:27:35.507Z,52128.00
2018-09-21T08:28:35.514Z,49760.00
2018-09-21T08:29:35.318Z,44384.00
2018-09-21T08:30:35.233Z,45472.00
2018-09-21T08:31:35.259Z,55008.00
2018-09-21T08:32:35.079Z,52288.00
2018-09-21T08:33:34.979Z,55520.00
2018-09-21T08:34:34.891Z,53632.00
2018-09-21T08:35:34.919Z,55488.00
2018-09-21T08:36:34.726Z,34400.00
2018-09-21T08:37:34.653Z,51840.00
2018-09-21T08:38:34.553Z,50656.00
2018-09-21T08:39:34.469Z,52768.00
2018-09-21T08:40:34.383Z,43808.00
2018-09-21T08:41:34.301Z,34464.00
2018-09-21T08:42:34.332Z,46432.00
2018-09-21T08:43:34.130Z,49728.00
2018-09-21T08:44:34.046Z,59712.00
2018-09-21T08:45:34.016Z,53024.00
2018-09-21T08:46:33.876Z,46848.00
2018-09-21T08:47:33.811Z,52352.00
2018-09-21T08:48:33.714Z,57376.00
2018-09-21T08:49:33.723Z,51040.00
2018-09-21T08:50:33.539Z,55392.00
2018-09-21T08:51:33.464Z,56832.00
2018-09-21T08:52:33.388Z,53056.00
2018-09-21T08:53:33.289Z,48416.00
2018-09-21T08:54:33.204Z,52224.00
2018-09-21T08:55:33.119Z,50400.00
2018-09-21T08:56:33.136Z,45184.00
2018-09-21T08:57:32.964Z,40000.00
2018-09-21T08:58:32.882Z,45536.00
2018-09-21T08:59:32.785Z,45600.00
2018-09-21T09:00:32.701Z,47264.00
2018-09-21T09:01:32.614Z,49056.00
2018-09-21T09:02:32.549Z,52320.00
2018-09-21T09:03:32.570Z,54784.00
2018-09-21T09:04:32.365Z,60672.00
2018-09-21T09:05:32.280Z,63392.00
2018-09-21T09:06:32.198Z,60064.00
2018-09-21T09:07:32.131Z,59424.00
2018-09-21T09:08:32.032Z,60416.00
2018-09-21T09:09:31.949Z,59616.00
2018-09-21T09:10:31.967Z,60736.00
2018-09-21T09:11:31.788Z,45888.00
2018-09-21T09:12:31.716Z,47424.00
2018-09-21T09:13:31.618Z,46048.00
2018-09-21T09:14:31.535Z,44608.00
2018-09-21T09:15:31.454Z,49280.00
2018-09-21T09:16:31.372Z,49472.00
2018-09-21T09:17:31.406Z,51488.00
2018-09-21T09:18:31.207Z,53408.00
2018-09-21T09:19:31.124Z,54560.00
2018-09-21T09:20:31.045Z,55488.00
2018-09-21T09:21:30.965Z,51744.00
2018-09-21T09:22:30.881Z,52128.00
2018-09-21T09:23:30.815Z,49728.00
2018-09-21T09:24:30.832Z,53504.00
2018-09-21T09:25:30.636Z,42752.00
2018-09-21T09:26:30.557Z,52480.00
2018-09-21T09:27:30.475Z,58752.00
2018-09-21T09:28:30.408Z,34496.00
2018-09-21T09:29:30.312Z,36192.00
2018-09-21T09:30:30.231Z,45920.00
2018-09-21T09:31:30.251Z,46240.00
2018-09-21T09:32:30.067Z,54240.00
2018-09-21T09:33:30.006Z,58400.00
2018-09-21T09:34:29.905Z,46496.00
2018-09-21T09:35:29.822Z,44384.00
2018-09-21T09:36:29.744Z,31936.00
2018-09-21T09:37:29.661Z,31232.00
2018-09-21T09:38:29.700Z,49760.00
2018-09-21T09:39:29.495Z,52608.00
2018-09-21T09:40:29.411Z,52160.00
2018-09-21T09:41:29.331Z,52672.00
2018-09-21T09:42:29.252Z,53568.00
2018-09-21T09:43:29.184Z,51040.00
2018-09-21T09:44:29.205Z,59872.00
2018-09-21T09:45:29.005Z,61152.00
2018-09-21T09:46:28.925Z,61952.00
2018-09-21T09:47:28.845Z,59904.00
2018-09-21T09:48:28.814Z,52128.00
2018-09-21T09:49:28.680Z,54688.00
2018-09-21T09:50:28.603Z,58016.00
2018-09-21T09:51:28.517Z,56960.00
2018-09-21T09:52:28.435Z,59264.00
2018-09-21T09:53:28.373Z,59040.00
2018-09-21T09:54:28.278Z,33984.00
2018-09-21T09:55:28.199Z,33696.00
2018-09-21T09:56:28.119Z,32640.00
2018-09-21T09:57:28.034Z,30208.00
2018-09-21T09:58:28.088Z,26208.00
2018-09-21T09:59:27.876Z,26112.00
2018-09-21T10:00:27.797Z,25888.00
2018-09-21T10:01:27.716Z,29280.00
2018-09-21T10:02:27.635Z,32256.00
2018-09-21T10:03:27.635Z,30976.00
2018-09-21T10:04:27.472Z,30400.00
2018-09-21T10:05:27.393Z,25056.00
2018-09-21T10:06:27.311Z,23424.00
2018-09-21T10:07:27.227Z,26176.00
2018-09-21T10:08:27.162Z,22912.00
2018-09-21T10:09:27.068Z,23136.00
2018-09-21T10:10:27.045Z,24096.00
2018-09-21T10:11:26.900Z,24960.00
2018-09-21T10:12:26.815Z,34112.00
2018-09-21T10:13:26.753Z,29920.00
2018-09-21T10:14:26.653Z,23904.00
2018-09-21T10:15:26.569Z,23904.00
2018-09-21T10:16:26.554Z,24864.00
2018-09-21T10:17:26.407Z,24928.00
2018-09-21T10:18:26.337Z,24832.00
2018-09-21T10:19:26.238Z,24800.00
2018-09-21T10:20:26.153Z,26624.00
2018-09-21T10:21:26.069Z,21952.00
2018-09-21T10:22:25.989Z,20800.00
2018-09-21T10:23:25.922Z,18240.00
2018-09-21T10:24:25.824Z,17504.00
2018-09-21T10:25:25.738Z,17248.00
2018-09-21T10:26:25.657Z,16928.00
2018-09-21T10:27:25.587Z,16376.00
2018-09-21T10:28:25.623Z,16216.00
2018-09-21T10:29:25.439Z,16324.00
2018-09-21T10:30:25.317Z,16380.00
2018-09-21T10:31:25.234Z,16440.00
2018-09-21T10:32:25.147Z,16404.00
2018-09-21T10:33:25.160Z,16332.00
2018-09-21T10:34:24.983Z,16284.00
2018-09-21T10:35:24.920Z,16264.00
2018-09-21T10:36:24.832Z,16404.00
2018-09-21T10:37:24.727Z,16396.00
2018-09-21T10:38:24.658Z,17120.00
2018-09-21T10:39:24.557Z,17152.00
2018-09-21T10:40:24.540Z,17344.00
2018-09-21T10:41:24.388Z,17472.00
2018-09-21T10:42:24.313Z,18528.00
2018-09-21T10:43:24.234Z,19552.00
2018-09-21T10:44:24.140Z,21408.00
2018-09-21T10:45:24.049Z,24256.00
2018-09-21T10:46:23.965Z,23072.00
2018-09-21T10:47:23.880Z,24288.00
2018-09-21T10:48:23.810Z,24512.00
2018-09-21T10:49:23.707Z,24640.00
2018-09-21T10:50:23.622Z,22784.00
2018-09-21T10:51:23.537Z,22688.00
2018-09-21T10:52:23.453Z,26304.00
2018-09-21T10:53:23.390Z,48320.00
2018-09-21T10:54:23.283Z,34528.00
2018-09-21T10:55:23.211Z,40992.00
2018-09-21T10:56:23.117Z,64320.00
2018-09-21T10:57:23.029Z,69824.00
2018-09-21T10:58:22.965Z,80128.00
2018-09-21T10:59:22.861Z,62688.00
2018-09-21T11:00:22.813Z,44736.00
2018-09-21T11:01:22.688Z,42496.00
2018-09-21T11:02:22.630Z,48256.00
2018-09-21T11:03:22.522Z,60032.00
2018-09-21T11:04:22.842Z,26208.00
2018-09-21T11:05:22.359Z,29664.00
2018-09-21T11:06:22.271Z,22432.00
2018-09-21T11:07:22.295Z,23296.00
2018-09-21T11:08:22.120Z,16108.00
2018-09-21T11:09:22.020Z,13276.00
2018-09-21T11:10:21.942Z,12164.00
2018-09-21T11:11:21.950Z,13052.00
2018-09-21T11:12:21.769Z,30080.00
2018-09-21T11:13:21.694Z,54368.00
2018-09-21T11:14:21.622Z,40096.00
2018-09-21T11:15:21.523Z,14888.00
2018-09-21T11:16:21.437Z,14912.00
2018-09-21T11:17:21.351Z,73600.00
2018-09-21T11:18:21.271Z,79264.00
2018-09-21T11:19:21.203Z,78240.00
2018-09-21T11:20:21.101Z,77600.00
2018-09-21T11:21:21.017Z,71680.00
2018-09-21T11:22:20.934Z,63648.00
2018-09-21T11:23:20.877Z,46816.00
2018-09-21T11:24:20.784Z,39648.00
2018-09-21T11:25:20.687Z,52544.00
2018-09-21T11:26:20.606Z,47264.00
2018-09-21T11:27:20.524Z,48192.00
2018-09-21T11:28:20.441Z,46304.00
2018-09-21T11:29:20.372Z,39168.00
2018-09-21T11:30:20.273Z,57664.00
2018-09-21T11:31:20.192Z,55648.00
2018-09-21T11:32:20.227Z,60032.00
2018-09-21T11:33:20.027Z,57632.00
2018-09-21T11:34:19.960Z,49952.00
2018-09-21T11:35:19.860Z,58944.00
2018-09-21T11:36:19.778Z,55616.00
2018-09-21T11:37:19.697Z,58080.00
2018-09-21T11:38:19.615Z,50208.00
2018-09-21T11:39:19.549Z,34400.00
2018-09-21T11:40:19.451Z,25792.00
2018-09-21T11:41:19.372Z,49824.00
2018-09-21T11:42:19.286Z,39712.00
2018-09-21T11:43:19.218Z,48960.00
2018-09-21T11:44:19.142Z,43552.00
2018-09-21T11:45:19.048Z,25184.00
2018-09-21T11:46:19.067Z,43232.00
2018-09-21T11:47:19.005Z,61536.00
2018-09-21T11:48:18.804Z,36480.00
2018-09-21T11:49:18.736Z,35616.00
2018-09-21T11:50:18.641Z,44576.00
2018-09-21T11:51:18.559Z,37792.00
2018-09-21T11:52:18.476Z,21856.00
2018-09-21T11:53:18.506Z,23520.00
2018-09-21T11:54:18.332Z,17792.00
2018-09-21T11:55:18.235Z,16568.00
2018-09-21T11:56:18.155Z,16372.00
2018-09-21T11:57:18.072Z,20224.00
2018-09-21T11:58:17.992Z,27104.00
2018-09-21T11:59:17.925Z,25664.00
2018-09-21T12:00:17.927Z,26624.00
2018-09-21T12:01:17.747Z,26816.00
2018-09-21T12:02:17.664Z,27200.00
2018-09-21T12:03:17.582Z,30432.00
2018-09-21T12:04:17.515Z,26656.00
2018-09-21T12:05:17.415Z,36832.00
2018-09-21T12:06:17.336Z,47424.00
2018-09-21T12:07:17.354Z,55648.00
2018-09-21T12:08:17.168Z,32768.00
2018-09-21T12:09:17.103Z,27808.00
2018-09-21T12:10:17.010Z,24896.00
2018-09-21T12:11:16.926Z,19616.00
2018-09-21T12:12:16.840Z,19552.00
2018-09-21T12:13:16.762Z,22560.00
2018-09-21T12:14:16.794Z,19872.00
2018-09-21T12:15:16.593Z,19200.00
2018-09-21T12:16:16.509Z,19200.00
2018-09-21T12:17:16.428Z,16340.00
2018-09-21T12:18:16.346Z,16644.00
2018-09-21T12:19:16.278Z,21856.00